Reklama

Seznam meteostanic a jejich METAR

Vyhledat místa podle abecedy:
A B C D E F G H I J K L M N O P Q R S T U V W X Y Z

Filtrovat:

ID stanice:
a/nebo
Název místa (fulltext):
 
Místo (ID)Naposledy načteno 
Aalborg (EKYT) 05.12.2019 23:45 UTC Zobrazit METAR
EKYT 052345Z AUTO 22022KT 8000 -RA FEW009/// BKN013/// BKN017/// 07/07 Q0993
Aarhus (EKAH) 01.12.2019 10:50 UTC Zobrazit METAR
EKAH 011050Z 25006KT CAVOK 03/01 Q1019
Abu Dhabi (OMAA) 06.12.2019 00:00 UTC Zobrazit METAR
OMAA 060000Z 11003KT CAVOK 19/14 Q1018 NOSIG
Abuja (DNAA) 05.12.2019 23:00 UTC Zobrazit METAR
DNAA 052300Z 08004KT CAVOK 23/20 Q1013 NOSIG
Accra (DGAA) 06.12.2019 00:00 UTC Zobrazit METAR
DGAA 060000Z 23008KT 9999 FEW014 28/25 Q1011 NOSIG
Addis Abeba (HAAB) 06.12.2019 00:00 UTC Zobrazit METAR
HAAB 060000Z 08008KT 9999 BKN024 12/08 Q1025
Agana (PGUM) 05.12.2019 23:54 UTC Zobrazit METAR
PGUM 052354Z 08012G21KT 10SM CLR 28/23 A2991 RMK AO2 SLP120 60005 T02830233 10289 20250 50002
Ahe Island (NTHE) Zatím nenačteno  
Akureyri (BIAR) 06.12.2019 00:00 UTC Zobrazit METAR
BIAR 060000Z 33011KT 6000 -SN FEW010 BKN017 OVC050 M00/M02 Q0989
Almaty (UAAA) Zatím nenačteno  
Amman (OJAM) 05.12.2019 22:00 UTC Zobrazit METAR
OJAM 052200Z 24016KT 5000 HZ FEW030 SCT035 13/08 Q1018 NOSIG
Amsterdam (EHAM) 05.12.2019 23:55 UTC Zobrazit METAR
EHAM 052355Z 21019KT 7000 FEW005 BKN007 06/05 Q1011 NOSIG
Antananarivo (FMMI) 06.12.2019 00:00 UTC Zobrazit METAR
FMMI 060000Z 06004KT 9999 FEW017 SCT020 16/15 Q1019 NOSIG
Antwerp (EBAW) 05.12.2019 23:50 UTC Zobrazit METAR
EBAW 052350Z AUTO 21012KT 170V230 5000 // OVC007/// 02/01 Q1016
Apia (NSFA) 05.12.2019 23:00 UTC Zobrazit METAR
NSFA 052300Z 03014KT 9999 FEW024 SCT270 33/25 Q1011 NOSIG
Aruba I (TNCA) 06.12.2019 00:00 UTC Zobrazit METAR
TNCA 060000Z 09013KT 9999 FEW018 28/24 Q1012 NOSIG
Ascension I. (FHAW) 04.12.2019 20:50 UTC Zobrazit METAR
FHAW 042050Z 13018G28KT 9999 FEW018 25/21 Q1013 NOSIG RMK BLU BLU
Ashgabat (UTAA) 06.12.2019 00:00 UTC Zobrazit METAR
UTAA 060000Z 05002KT 9999 -RA OVC006 05/04 Q1031 R88/290055 NOSIG
Asmara (HHAS) 03.02.2015 17:00 UTC Zobrazit METAR
HHAS 031700Z 27004KT CAVOK 15/06 Q1028 NOSIG
Astana (UACC) Zatím nenačteno  
Astrakhan (URWA) Zatím nenačteno  
Asuncion (SGAS) 06.12.2019 00:00 UTC Zobrazit METAR
SGAS 060000Z 17008KT 110V210 CAVOK 24/12 Q1011
Athens (LGAV) 05.12.2019 23:50 UTC Zobrazit METAR
LGAV 052350Z 31004KT 9999 SCT040 10/02 Q1027 NOSIG
Reklama

Počasí na Váš email

Emaily jsou bez reklamy a bez spamu



Odhlásit newsletter

Reklama


Lunární kalendář

  • 12.12.
  • 19.12.
  • 26.12.
  • 03.01.



Reklama


Reklama
Povinné ručení
Reklama



Reklama